Terminal Aerodrome Forecast
Issued by NWS

Home | Current Version | Previous Version | Text Only | Print | Product List | Glossary On
Versions: 1 2 3 4 5 6 7 8 9 10 11 12 13 14 15 16 17 18 19 20
000
FTUS41 KBGM 031311 AAA
TAFELM
TAF AMD
KELM 031311Z 0313/0412 04004KT P6SM SCT008 OVC050
      TEMPO 0313/0316 BKN012
     FM031600 VRB04KT P6SM BKN020
     FM032000 VRB04KT P6SM BKN040
     FM040600 00000KT 6SM BR OVC025=

USA.gov is the U.S. government's official web portal to all federal, state and local government web resources and services.